Regional Weather

 

KMKL - Jackson, TN, USA
Distance from station: WNW 50mi, 81km
Updated: Tue, Mar-02-2021 7:53am CST
Clear
Clear
 Wind from WSW
Wind: WSW 3 mph , 6 km/h
Temperature: 36°F , 2°C
Dew Point: 30°F , -1°C
Humidity: 81%
Barometer: 30.33 inHg , 1027.1 hPa
Clouds: Clear
Visibility: 10 miles , 16 km
2021/03/02 13:53 KMKL 021353Z 24003KT 10SM CLR 02/M01 A3033 RMK AO2 SLP274 T00221011
KMEM - Memphis, TN, USA
Distance from station: W 108mi, 173km
Updated: Tue, Mar-02-2021 7:54am CST
Mostly cloudy
Mostly cloudy
 Wind from NE
Wind: NE 7 mph , 11 km/h
Temperature: 41°F , 5°C
Wind Chill: 36°F , 2°C
Dew Point: 30°F , -1°C
Humidity: 66%
Barometer: 30.32 inHg , 1026.8 hPa
Clouds: Mostly cloudy
Visibility: 10 miles , 16 km
Cloud details: Few Clouds 15000 ft
Mostly cloudy 18000 ft
Mostly cloudy 25000 ft
2021/03/02 13:54 KMEM 021354Z 04006KT 10SM FEW150 BKN180 BKN250 05/M01 A3032 RMK AO2 SLP267 T00501011 $
 
KBNA - Nashville, TN, USA
Distance from station: NE 97mi, 157km
Updated: Tue, Mar-02-2021 7:53am CST
Mostly cloudy
Mostly cloudy
 Wind from NNE
Wind: NNE 8 mph , 13 km/h
Temperature: 37°F , 3°C
Wind Chill: 31°F , -1°C
Dew Point: 27°F , -3°C
Humidity: 65%
Barometer: 30.33 inHg , 1027.1 hPa
Clouds: Mostly cloudy
Visibility: 10 miles , 16 km
Cloud details: Partly cloudy 20000 ft
Mostly cloudy 25000 ft
2021/03/02 13:53 KBNA 021353Z 03007KT 10SM SCT200 BKN250 03/M03 A3033 RMK AO2 SLP272 T00331033
KCKV - Clarksville, TN, USA
Distance from station: NNE 99mi, 159km
Updated: Tue, Mar-02-2021 7:52am CST
Clear
Clear
 Wind from NE
Wind: NE 7 mph , 11 km/h
Temperature: 34°F , 1°C
Wind Chill: 28°F , -2°C
Dew Point: 28°F , -2°C
Humidity: 81%
Barometer: 30.33 inHg , 1027.1 hPa
Clouds: Clear
Visibility: 10 miles , 16 km
2021/03/02 13:52 KCKV 021352Z AUTO 05006KT 10SM CLR 01/M02 A3033 RMK AO2 SLP273 T00111022 $
 
KPAH - Paducah, KY, USA
Distance from station: NNW 128mi, 205km
Updated: Tue, Mar-02-2021 7:53am CST
Clear
Clear
 Wind from calm
Wind: Calm
Temperature: 36°F , 2°C
Dew Point: 28°F , -2°C
Humidity: 75%
Barometer: 30.36 inHg , 1028.1 hPa
Clouds: Clear
Visibility: 10 miles , 16 km
2021/03/02 13:53 KPAH 021353Z 00000KT 10SM CLR 02/M02 A3036 RMK AO2 SLP282 T00221017
KCHA - Chattanooga, TN, USA
Distance from station: E 165mi, 265km
Updated: Tue, Mar-02-2021 7:53am CST
Mostly cloudy
Mostly cloudy
 Wind from NNE
Wind: NNE 7 mph , 11 km/h
Temperature: 43°F , 6°C
Wind Chill: 39°F , 4°C
Dew Point: 27°F , -3°C
Humidity: 53%
Barometer: 30.28 inHg , 1025.4 hPa
Clouds: Mostly cloudy
Visibility: 10 miles , 16 km
Cloud details: Mostly cloudy 18000 ft
Mostly cloudy 25000 ft
2021/03/02 13:53 KCHA 021353Z 02006KT 10SM BKN180 BKN250 06/M03 A3028 RMK AO2 SLP255 VIRGA OHD AND ALQDS T00561028
 
KTYS - Knoxville, TN, USA
Distance from station: E 234mi, 377km
Updated: Tue, Mar-02-2021 7:53am CST
Mostly cloudy
Mostly cloudy
 Wind from NE
Wind: NE 10 mph , 17 km/h
Temperature: 37°F , 3°C
Wind Chill: 30°F , -1°C
Dew Point: 28°F , -2°C
Humidity: 70%
Barometer: 30.23 inHg , 1023.7 hPa
Clouds: Mostly cloudy
Visibility: 10 miles , 16 km
Cloud details: Mostly cloudy 17000 ft
Mostly cloudy 25000 ft
2021/03/02 13:53 KTYS 021353Z 04009KT 10SM BKN170 BKN250 03/M02 A3023 RMK AO2 SLP241 T00281022
KLIT - Little Rock, AR, USA
Distance from station: W 240mi, 386km
Updated: Tue, Mar-02-2021 7:53am CST
Overcast
Overcast
 Wind from NW
Wind: NW 3 mph , 6 km/h
Temperature: 39°F , 4°C
Dew Point: 34°F , 1°C
Humidity: 81%
Barometer: 30.36 inHg , 1028.1 hPa
Clouds: Overcast
Visibility: 10 miles , 16 km
Cloud details: Overcast 11000 ft
2021/03/02 13:53 KLIT 021353Z 31003KT 10SM OVC110 04/01 A3036 RMK AO2 SLP283 T00390011

Refresh Page for latest data.